Time;durP1;ratioP1;P1;durP2;ratioP2;P2;SDS_P1;SDS_P2;PMS_P1;PMS_P2;Temp;Humidity;BMP_temperature;BMP_pressure;BME280_temperature;BME280_humidity;BME280_pressure;Samples;Min_cycle;Max_cycle;Signal;HPM_P1;HPM_P2
2023/01/18 00:01:33;;;;;;;19.13;12.00;;;1.00;99.90;;;;;;5141529;27;20208;-74
2023/01/18 00:04:03;;;;;;;18.50;13.18;;;1.10;99.90;;;;;;5130229;27;20202;-73
2023/01/18 00:06:40;;;;;;;17.52;13.13;;;1.10;99.90;;;;;;5129594;27;20214;-75
2023/01/18 00:09:09;;;;;;;17.50;12.57;;;1.20;99.90;;;;;;5132089;27;20229;-71
2023/01/18 00:11:44;;;;;;;17.08;12.80;;;1.20;99.90;;;;;;5136508;27;20726;-72
2023/01/18 00:14:17;;;;;;;17.45;12.50;;;1.20;99.90;;;;;;5126348;27;20201;-74
2023/01/18 00:16:45;;;;;;;21.13;12.60;;;1.10;99.90;;;;;;5135679;27;20200;-73
2023/01/18 00:19:23;;;;;;;18.63;13.32;;;1.10;99.90;;;;;;5149385;27;20238;-76
2023/01/18 00:21:58;;;;;;;24.35;14.15;;;1.10;99.90;;;;;;5127572;27;20202;-74
2023/01/18 00:24:28;;;;;;;22.02;14.05;;;1.10;99.90;;;;;;5131601;27;20578;-73
2023/01/18 00:27:16;;;;;;;23.50;14.40;;;1.10;99.90;;;;;;5133526;27;20209;-75
2023/01/18 00:29:45;;;;;;;22.90;13.40;;;1.10;99.90;;;;;;5116144;27;20261;-72
2023/01/18 00:32:34;;;;;;;19.48;14.52;;;1.10;99.90;;;;;;5132508;27;20194;-74
2023/01/18 00:35:26;;;;;;;19.30;13.70;;;1.10;99.90;;;;;;5138645;27;20220;-75
2023/01/18 00:37:58;;;;;;;22.33;14.05;;;1.10;99.90;;;;;;5122963;28;20300;-74
2023/01/18 00:40:29;;;;;;;18.40;13.70;;;1.10;99.90;;;;;;5129789;27;20193;-74
2023/01/18 00:45:54;;;;;;;21.92;14.48;;;1.20;99.90;;;;;;5147827;27;20292;-72
2023/01/18 00:48:22;;;;;;;23.20;13.48;;;1.20;99.90;;;;;;5129640;27;20246;-73
2023/01/18 00:50:52;;;;;;;17.48;14.23;;;1.10;99.90;;;;;;5122193;27;20228;-74
2023/01/18 00:53:31;;;;;;;20.73;15.93;;;1.00;99.90;;;;;;5121079;27;20233;-73
2023/01/18 00:56:05;;;;;;;25.50;16.00;;;1.00;99.90;;;;;;5115209;27;20681;-74
2023/01/18 00:58:41;;;;;;;16.75;13.75;;;1.00;99.90;;;;;;5123094;27;20201;-73
2023/01/18 01:01:08;;;;;;;20.25;14.32;;;1.00;99.90;;;;;;5120319;27;20230;-73
2023/01/18 01:06:52;;;;;;;19.02;14.73;;;0.90;99.90;;;;;;5146261;27;20289;-73
2023/01/18 01:09:26;;;;;;;19.25;15.93;;;0.80;99.90;;;;;;5148094;27;20232;-72
2023/01/18 01:26:06;;;;;;;23.17;13.95;;;0.80;99.90;;;;;;5135385;27;20258;-73
2023/01/18 01:28:34;;;;;;;22.27;14.38;;;0.70;99.90;;;;;;5137764;27;20227;-74
2023/01/18 01:31:21;;;;;;;21.17;15.85;;;0.70;99.90;;;;;;5117978;27;20270;-73
2023/01/18 01:33:49;;;;;;;16.17;13.55;;;0.70;99.90;;;;;;5131236;27;20201;-75
2023/01/18 01:36:26;;;;;;;24.08;15.75;;;0.70;99.90;;;;;;5146662;27;20276;-74
2023/01/18 01:38:58;;;;;;;20.33;14.40;;;0.60;99.90;;;;;;5141197;27;20216;-73
2023/01/18 01:41:35;;;;;;;20.90;16.13;;;0.60;99.90;;;;;;5143941;27;20282;-75
2023/01/18 01:44:35;;;;;;;27.27;15.20;;;0.60;99.90;;;;;;5136779;27;20218;-74
2023/01/18 01:47:09;;;;;;;18.80;13.80;;;0.60;99.90;;;;;;5124361;27;20192;-72
2023/01/18 01:49:44;;;;;;;38.47;17.45;;;0.60;99.90;;;;;;5129558;27;20201;-72
2023/01/18 01:52:33;;;;;;;21.85;15.45;;;0.70;99.90;;;;;;5137923;27;20195;-72
2023/01/18 01:55:09;;;;;;;22.08;14.88;;;0.60;99.90;;;;;;5132499;27;20226;-72
2023/01/18 01:57:49;;;;;;;19.55;14.88;;;0.60;99.90;;;;;;5135259;27;20243;-72
2023/01/18 02:00:27;;;;;;;21.83;15.18;;;0.60;99.90;;;;;;5127029;27;20657;-74
2023/01/18 02:03:02;;;;;;;23.05;15.45;;;0.60;99.90;;;;;;5130900;27;20197;-71
2023/01/18 02:05:35;;;;;;;22.23;14.63;;;0.50;99.90;;;;;;5126738;27;20227;-74
2023/01/18 02:08:04;;;;;;;22.00;15.50;;;0.50;99.90;;;;;;5138912;27;20258;-73
2023/01/18 02:10:35;;;;;;;22.15;15.35;;;0.40;99.90;;;;;;5142741;27;20196;-73
2023/01/18 02:13:19;;;;;;;20.63;14.75;;;0.50;99.90;;;;;;5131725;27;20206;-72
2023/01/18 02:15:55;;;;;;;19.00;13.73;;;0.50;99.90;;;;;;5121708;27;20224;-73
2023/01/18 02:18:29;;;;;;;20.63;13.95;;;0.60;99.90;;;;;;5137717;27;20196;-73
2023/01/18 02:21:14;;;;;;;17.45;13.45;;;0.60;99.90;;;;;;5128454;27;20204;-74
2023/01/18 02:24:22;;;;;;;16.27;13.30;;;0.60;99.90;;;;;;5132498;27;20675;-74
2023/01/18 02:27:00;;;;;;;21.30;15.15;;;0.60;99.90;;;;;;5134847;27;20618;-73
2023/01/18 02:29:47;;;;;;;20.90;13.48;;;0.60;99.90;;;;;;5138081;27;20579;-73
2023/01/18 02:32:25;;;;;;;21.45;13.73;;;0.60;99.90;;;;;;5143637;27;20201;-73
2023/01/18 02:34:59;;;;;;;19.08;14.35;;;0.50;99.90;;;;;;5127066;27;20642;-73
2023/01/18 02:37:42;;;;;;;22.67;15.45;;;0.50;99.90;;;;;;5135044;27;20303;-72
2023/01/18 02:40:23;;;;;;;18.90;13.40;;;0.40;99.90;;;;;;5130867;27;20205;-73
2023/01/18 02:48:37;;;;;;;21.63;14.35;;;0.30;99.90;;;;;;5140762;27;20311;-73
2023/01/18 02:51:20;;;;;;;20.10;15.52;;;0.30;99.90;;;;;;5139947;27;20205;-74
2023/01/18 02:53:55;;;;;;;21.02;15.45;;;0.40;99.90;;;;;;5136465;27;20707;-73
2023/01/18 02:56:27;;;;;;;21.42;14.30;;;0.50;99.90;;;;;;5147331;27;20315;-74
2023/01/18 02:59:03;;;;;;;21.73;16.38;;;0.50;99.90;;;;;;5125272;27;20205;-75
2023/01/18 03:01:42;;;;;;;19.98;14.90;;;0.50;99.90;;;;;;5121312;27;20199;-73
2023/01/18 03:04:16;;;;;;;25.13;16.23;;;0.60;99.90;;;;;;5139098;27;20194;-74
2023/01/18 03:06:52;;;;;;;21.17;14.85;;;0.50;99.90;;;;;;5139860;27;20226;-73
2023/01/18 03:09:26;;;;;;;19.25;14.20;;;0.60;99.90;;;;;;5132494;27;20285;-73
2023/01/18 03:12:11;;;;;;;19.42;14.75;;;0.60;99.90;;;;;;5136962;27;20235;-73
2023/01/18 03:15:01;;;;;;;19.30;14.05;;;0.50;99.90;;;;;;5127138;27;20224;-74
2023/01/18 03:17:36;;;;;;;24.73;16.98;;;0.40;99.90;;;;;;5127011;27;20228;-73
2023/01/18 03:20:12;;;;;;;21.40;15.57;;;0.40;99.90;;;;;;5127325;27;20259;-73
2023/01/18 03:25:35;;;;;;;23.20;16.15;;;0.50;99.90;;;;;;5132111;27;20225;-73
2023/01/18 03:33:56;;;;;;;22.45;16.60;;;0.40;99.90;;;;;;5135695;27;20676;-73
2023/01/18 03:36:31;;;;;;;21.00;15.52;;;0.30;99.90;;;;;;5136488;27;20228;-74
2023/01/18 03:39:04;;;;;;;23.20;18.08;;;0.30;99.90;;;;;;5147092;27;20293;-73
2023/01/18 03:41:46;;;;;;;19.75;14.27;;;0.20;99.90;;;;;;5144138;27;20274;-71
2023/01/18 03:44:24;;;;;;;21.02;15.82;;;0.20;99.90;;;;;;5145274;27;20223;-73
2023/01/18 03:46:58;;;;;;;26.50;16.10;;;0.20;99.90;;;;;;5130991;27;20193;-73
2023/01/18 03:49:47;;;;;;;20.48;15.15;;;0.10;99.90;;;;;;5151284;27;20205;-73
2023/01/18 03:52:24;;;;;;;22.88;16.02;;;0.10;99.90;;;;;;5141570;27;20211;-74
2023/01/18 03:55:08;;;;;;;21.90;15.85;;;0.10;99.90;;;;;;5131025;27;20221;-73
2023/01/18 03:57:48;;;;;;;21.50;16.15;;;0.10;99.90;;;;;;5131509;27;20205;-72
2023/01/18 04:00:19;;;;;;;22.42;16.83;;;0.10;99.90;;;;;;5129114;27;20635;-71
2023/01/18 04:02:50;;;;;;;19.80;15.50;;;0.20;99.90;;;;;;5142824;27;20257;-72
2023/01/18 04:05:26;;;;;;;18.35;15.32;;;0.20;99.90;;;;;;5139153;27;20222;-73
2023/01/18 04:08:05;;;;;;;23.13;15.52;;;0.20;99.90;;;;;;5148838;27;20196;-73
2023/01/18 04:10:35;;;;;;;17.73;14.27;;;0.20;99.90;;;;;;5134764;27;20225;-74
2023/01/18 04:13:09;;;;;;;18.55;15.80;;;0.30;99.90;;;;;;5135212;27;20699;-74
2023/01/18 04:15:44;;;;;;;18.65;14.32;;;0.40;99.90;;;;;;5122531;27;20280;-72
2023/01/18 04:18:12;;;;;;;20.15;16.08;;;0.40;99.90;;;;;;5129107;27;20235;-74
2023/01/18 04:20:45;;;;;;;17.38;14.60;;;0.40;99.90;;;;;;5132751;27;20201;-73
2023/01/18 04:23:13;;;;;;;18.15;15.48;;;0.50;99.90;;;;;;5139746;27;20203;-74
2023/01/18 04:25:48;;;;;;;18.15;14.07;;;0.60;99.90;;;;;;5133523;27;20217;-73
2023/01/18 04:28:23;;;;;;;19.25;14.05;;;0.60;99.90;;;;;;5138070;27;20225;-72
2023/01/18 04:30:56;;;;;;;30.20;16.10;;;0.50;99.90;;;;;;5124845;28;20595;-73
2023/01/18 04:33:35;;;;;;;19.50;14.85;;;0.50;99.90;;;;;;5136224;27;20295;-74
2023/01/18 04:36:07;;;;;;;18.20;14.27;;;0.50;99.90;;;;;;5120968;27;20233;-74
2023/01/18 04:38:39;;;;;;;20.75;14.35;;;0.60;99.90;;;;;;5131155;27;20725;-71
2023/01/18 04:41:13;;;;;;;27.17;14.73;;;0.50;99.90;;;;;;5134410;27;20201;-73
2023/01/18 04:43:43;;;;;;;28.08;17.77;;;0.50;99.90;;;;;;5138342;27;20206;-73
2023/01/18 04:46:14;;;;;;;21.92;15.88;;;0.50;99.90;;;;;;5139272;27;20244;-72
2023/01/18 04:48:59;;;;;;;22.15;16.98;;;0.30;99.90;;;;;;5135483;27;20188;-73
2023/01/18 04:51:32;;;;;;;19.67;15.80;;;0.40;99.90;;;;;;5131515;27;20282;-73
2023/01/18 04:54:05;;;;;;;23.83;18.35;;;0.40;99.90;;;;;;5128647;27;20291;-73
2023/01/18 04:56:43;;;;;;;19.95;14.75;;;0.30;99.90;;;;;;5138201;27;20221;-73
2023/01/18 04:59:19;;;;;;;23.52;16.52;;;0.30;99.90;;;;;;5140844;27;20310;-74
2023/01/18 05:01:52;;;;;;;24.67;15.65;;;0.20;99.90;;;;;;5132818;27;20225;-74
2023/01/18 05:04:20;;;;;;;25.60;16.77;;;0.30;99.90;;;;;;5130862;27;20204;-73
2023/01/18 05:06:56;;;;;;;30.55;16.35;;;0.30;99.90;;;;;;5145335;27;20200;-74
2023/01/18 05:09:26;;;;;;;24.55;18.00;;;0.20;99.90;;;;;;5128312;27;20200;-72
2023/01/18 05:12:01;;;;;;;21.85;16.17;;;0.20;99.90;;;;;;5129563;27;20554;-74
2023/01/18 05:14:32;;;;;;;22.65;17.13;;;0.10;99.90;;;;;;5140759;27;20200;-73
2023/01/18 05:17:34;;;;;;;23.98;18.05;;;0.00;99.90;;;;;;5127141;27;20289;-74
2023/01/18 05:20:06;;;;;;;24.30;17.38;;;0.00;99.90;;;;;;5130898;27;20200;-75
2023/01/18 05:23:09;;;;;;;24.45;18.20;;;0.00;99.90;;;;;;5139937;27;20192;-74
2023/01/18 05:25:41;;;;;;;25.60;18.13;;;0.00;99.90;;;;;;5129620;27;20223;-74
2023/01/18 05:28:47;;;;;;;21.42;17.38;;;-0.10;99.90;;;;;;5141861;27;20193;-74
2023/01/18 05:31:21;;;;;;;24.38;17.08;;;-0.10;99.90;;;;;;5124529;27;20201;-74
2023/01/18 05:33:57;;;;;;;22.63;15.68;;;-0.10;99.90;;;;;;5129986;27;20197;-71
2023/01/18 05:36:32;;;;;;;25.67;16.98;;;0.00;99.90;;;;;;5142013;27;20277;-74
2023/01/18 05:39:19;;;;;;;29.58;19.80;;;0.00;99.90;;;;;;5142497;27;20219;-74
2023/01/18 05:42:06;;;;;;;28.95;20.08;;;0.00;99.90;;;;;;5141246;27;20295;-72
2023/01/18 05:44:37;;;;;;;25.52;18.65;;;0.00;99.90;;;;;;5147914;27;20209;-73
2023/01/18 05:47:06;;;;;;;26.80;17.83;;;0.00;99.90;;;;;;5149270;27;20374;-73
2023/01/18 05:49:38;;;;;;;21.33;15.15;;;0.00;99.90;;;;;;5143789;27;20204;-74
2023/01/18 05:52:07;;;;;;;26.48;17.58;;;0.10;99.90;;;;;;5141087;27;20205;-72
2023/01/18 05:54:44;;;;;;;29.60;19.48;;;0.10;99.90;;;;;;5139959;27;20221;-75
2023/01/18 05:57:14;;;;;;;25.77;19.55;;;0.10;99.90;;;;;;5139663;27;20198;-72
2023/01/18 05:59:41;;;;;;;26.90;18.30;;;0.10;99.90;;;;;;5122820;27;20282;-74
2023/01/18 06:02:20;;;;;;;25.35;19.02;;;0.20;99.90;;;;;;5137527;27;20288;-74
2023/01/18 06:04:47;;;;;;;24.58;15.35;;;0.20;99.90;;;;;;5129311;27;20226;-73
2023/01/18 06:07:15;;;;;;;26.00;17.95;;;0.30;99.90;;;;;;5135489;27;20574;-73
2023/01/18 06:09:47;;;;;;;27.63;18.42;;;0.40;99.90;;;;;;5130456;27;20204;-74
2023/01/18 06:12:29;;;;;;;27.85;17.88;;;0.40;99.90;;;;;;5137879;27;20203;-73
2023/01/18 06:15:03;;;;;;;20.65;16.50;;;0.40;99.90;;;;;;5142887;27;20226;-76
2023/01/18 06:17:36;;;;;;;23.70;17.30;;;0.40;99.90;;;;;;5129067;27;20714;-73
2023/01/18 06:20:17;;;;;;;23.83;17.30;;;0.40;99.90;;;;;;5129137;27;20241;-73
2023/01/18 06:22:49;;;;;;;24.88;16.92;;;0.40;99.90;;;;;;5137791;27;20225;-73
2023/01/18 06:25:23;;;;;;;25.83;17.27;;;0.50;99.90;;;;;;5127846;27;20254;-75
2023/01/18 06:27:53;;;;;;;25.90;17.88;;;0.40;99.90;;;;;;5139836;27;20693;-75
2023/01/18 06:30:27;;;;;;;35.10;18.83;;;0.50;99.90;;;;;;5129364;27;20203;-73
2023/01/18 06:32:54;;;;;;;26.85;18.50;;;0.40;99.90;;;;;;5137806;27;20725;-75
2023/01/18 06:35:37;;;;;;;29.90;19.65;;;0.30;99.90;;;;;;5128848;27;20708;-73
2023/01/18 06:38:09;;;;;;;27.00;18.95;;;0.30;99.90;;;;;;5130211;27;20239;-74
2023/01/18 06:40:41;;;;;;;33.28;19.35;;;0.20;99.90;;;;;;5145227;27;20288;-73
2023/01/18 06:43:14;;;;;;;29.67;22.02;;;0.20;99.90;;;;;;5146233;27;20201;-71
2023/01/18 06:45:56;;;;;;;27.48;19.70;;;0.10;99.90;;;;;;5146040;27;20220;-72
2023/01/18 06:48:28;;;;;;;28.45;18.77;;;0.10;99.90;;;;;;5146714;27;20205;-74
2023/01/18 06:50:57;;;;;;;32.00;19.95;;;0.10;99.90;;;;;;5140546;27;20305;-75
2023/01/18 06:53:38;;;;;;;29.17;19.13;;;0.00;99.90;;;;;;5138730;27;20201;-73
2023/01/18 06:56:10;;;;;;;26.75;18.33;;;0.10;99.90;;;;;;5139029;27;20575;-74
2023/01/18 06:58:43;;;;;;;25.80;19.02;;;0.20;99.90;;;;;;5132605;27;20229;-76
2023/01/18 07:01:13;;;;;;;29.90;18.98;;;0.20;99.90;;;;;;5141638;27;20655;-74
2023/01/18 07:03:51;;;;;;;26.33;19.83;;;0.30;99.90;;;;;;5134455;27;20193;-73
2023/01/18 07:06:27;;;;;;;25.00;17.50;;;0.30;99.90;;;;;;5123225;27;20232;-76
2023/01/18 07:09:06;;;;;;;25.52;18.35;;;0.40;99.90;;;;;;5119420;27;20665;-78
2023/01/18 07:11:45;;;;;;;24.25;18.17;;;0.30;99.90;;;;;;5120525;27;20366;-74
2023/01/18 07:14:19;;;;;;;24.63;17.70;;;0.30;99.90;;;;;;5126796;27;20585;-75
2023/01/18 07:17:00;;;;;;;33.47;19.73;;;0.40;99.90;;;;;;5118686;27;20211;-74
2023/01/18 07:19:32;;;;;;;23.90;17.85;;;0.40;99.90;;;;;;5120021;27;20221;-75
2023/01/18 07:22:01;;;;;;;29.95;20.30;;;0.40;99.90;;;;;;5122831;27;20213;-77
2023/01/18 07:24:28;;;;;;;26.13;18.17;;;0.40;99.90;;;;;;5118925;27;20289;-75
2023/01/18 07:26:59;;;;;;;26.13;18.33;;;0.50;99.90;;;;;;5121103;27;20293;-75
2023/01/18 07:29:31;;;;;;;26.33;17.25;;;0.40;99.90;;;;;;5118453;27;20201;-75
2023/01/18 07:31:59;;;;;;;26.98;19.73;;;0.40;99.90;;;;;;5120301;27;20199;-78
2023/01/18 07:34:27;;;;;;;29.48;20.63;;;0.40;99.90;;;;;;5120591;27;20206;-76
2023/01/18 07:36:54;;;;;;;30.75;19.98;;;0.40;99.90;;;;;;5124146;27;20676;-78
2023/01/18 07:39:31;;;;;;;31.30;20.75;;;0.40;99.90;;;;;;5125096;27;20229;-79
2023/01/18 07:42:00;;;;;;;29.00;19.35;;;0.50;99.90;;;;;;5121992;27;20206;-75
2023/01/18 07:44:28;;;;;;;28.02;18.80;;;0.50;99.90;;;;;;5124797;27;20217;-77
2023/01/18 07:46:55;;;;;;;30.38;19.55;;;0.60;99.90;;;;;;5125719;27;20212;-77
2023/01/18 07:49:22;;;;;;;27.52;20.10;;;0.50;99.90;;;;;;5125147;27;20205;-76
2023/01/18 07:51:49;;;;;;;35.05;21.38;;;0.40;99.90;;;;;;5124338;27;20205;-78
2023/01/18 07:54:17;;;;;;;38.55;22.45;;;0.40;99.90;;;;;;5131613;27;20198;-76
2023/01/18 07:56:44;;;;;;;26.98;19.67;;;0.40;99.90;;;;;;5136299;27;20197;-76
2023/01/18 07:59:14;;;;;;;31.95;21.58;;;0.30;99.90;;;;;;5127533;27;20308;-75
2023/01/18 08:01:41;;;;;;;32.83;20.60;;;0.30;99.90;;;;;;5130158;27;20289;-74
2023/01/18 08:04:09;;;;;;;26.08;18.67;;;0.30;99.90;;;;;;5124026;27;20221;-76
2023/01/18 08:06:36;;;;;;;22.90;17.55;;;0.20;99.90;;;;;;5126305;27;20233;-73
2023/01/18 08:09:03;;;;;;;37.13;19.35;;;0.30;99.90;;;;;;5144174;27;20216;-76
2023/01/18 08:11:30;;;;;;;27.58;20.50;;;0.30;99.90;;;;;;5139457;27;20280;-77
2023/01/18 08:13:57;;;;;;;27.48;20.58;;;0.30;99.90;;;;;;5124292;27;20201;-74
2023/01/18 08:16:28;;;;;;;28.67;19.88;;;0.40;99.90;;;;;;5147065;27;20299;-75
2023/01/18 08:18:55;;;;;;;31.95;20.83;;;0.40;99.90;;;;;;5133838;27;20583;-75
2023/01/18 08:21:22;;;;;;;34.00;19.67;;;0.50;99.90;;;;;;5144935;27;20220;-75
2023/01/18 08:23:49;;;;;;;33.00;21.98;;;0.60;99.90;;;;;;5133909;27;20309;-75
2023/01/18 08:26:19;;;;;;;25.92;18.52;;;0.60;99.90;;;;;;5128874;27;20252;-75
2023/01/18 08:28:45;;;;;;;26.73;19.40;;;0.70;99.90;;;;;;5118234;27;20286;-75
2023/01/18 08:31:20;;;;;;;31.13;18.38;;;0.80;99.90;;;;;;5133978;27;20300;-75
2023/01/18 08:33:49;;;;;;;26.58;19.98;;;0.90;99.90;;;;;;5130399;27;20232;-75
2023/01/18 08:36:18;;;;;;;27.45;19.98;;;0.90;99.90;;;;;;5130772;27;20225;-76
2023/01/18 08:38:48;;;;;;;37.33;21.92;;;0.90;99.90;;;;;;5131169;27;20206;-76
2023/01/18 08:41:16;;;;;;;33.92;20.65;;;0.90;99.90;;;;;;5118353;27;20219;-77
2023/01/18 08:43:44;;;;;;;38.25;21.17;;;0.90;99.90;;;;;;5119820;27;20288;-76
2023/01/18 08:46:11;;;;;;;28.73;19.92;;;1.10;99.90;;;;;;5128024;27;20344;-75
2023/01/18 08:48:40;;;;;;;26.98;18.02;;;1.30;99.90;;;;;;5136688;27;20990;-75
2023/01/18 08:51:11;;;;;;;25.52;17.38;;;1.60;99.90;;;;;;5130524;27;20282;-73
2023/01/18 08:53:38;;;;;;;20.95;17.13;;;1.70;99.90;;;;;;5127227;27;20219;-74
2023/01/18 08:56:06;;;;;;;21.05;16.50;;;2.00;99.90;;;;;;5131037;27;20248;-76
2023/01/18 08:58:33;;;;;;;35.17;19.10;;;2.30;99.90;;;;;;5144608;27;20240;-75
2023/01/18 09:01:08;;;;;;;26.05;18.85;;;2.70;99.90;;;;;;5138605;27;20701;-76
2023/01/18 09:03:36;;;;;;;21.75;15.90;;;3.10;99.90;;;;;;5141003;27;20192;-75
2023/01/18 09:06:04;;;;;;;24.17;16.95;;;3.20;99.90;;;;;;5136852;27;20285;-76
2023/01/18 09:08:33;;;;;;;25.13;18.77;;;3.30;99.90;;;;;;5135003;27;20224;-76
2023/01/18 09:11:02;;;;;;;25.10;19.08;;;3.20;99.90;;;;;;5134468;27;20221;-75
2023/01/18 09:13:29;;;;;;;27.42;18.00;;;3.10;99.90;;;;;;5128681;27;20283;-77
2023/01/18 09:15:59;;;;;;;27.58;17.67;;;3.00;99.90;;;;;;5130517;27;20256;-76
2023/01/18 09:18:26;;;;;;;24.42;16.67;;;2.90;99.90;;;;;;5125366;27;20209;-76
2023/01/18 09:20:54;;;;;;;23.23;16.55;;;3.20;99.90;;;;;;5116776;28;20292;-77
2023/01/18 09:23:24;;;;;;;21.73;15.93;;;3.40;99.90;;;;;;5125102;27;20650;-76
2023/01/18 09:26:03;;;;;;;23.00;16.25;;;3.80;99.90;;;;;;5125121;27;20225;-76
2023/01/18 09:28:30;;;;;;;21.08;15.50;;;4.50;99.90;;;;;;5135492;27;20216;-77
2023/01/18 09:31:00;;;;;;;19.25;15.13;;;5.20;99.90;;;;;;5127486;27;20239;-75
2023/01/18 09:33:33;;;;;;;19.35;15.15;;;5.60;99.90;;;;;;5131083;27;20256;-76
2023/01/18 09:36:03;;;;;;;27.35;16.08;;;6.00;99.90;;;;;;5132892;27;20261;-77
2023/01/18 09:38:30;;;;;;;27.48;16.08;;;6.10;99.90;;;;;;5135313;27;20216;-76
2023/01/18 09:40:59;;;;;;;20.58;15.55;;;6.10;99.90;;;;;;5139030;27;20218;-77
2023/01/18 09:43:30;;;;;;;19.40;15.88;;;6.30;99.90;;;;;;5143495;27;20215;-76
2023/01/18 09:45:58;;;;;;;20.00;15.85;;;6.20;99.90;;;;;;5139585;27;20272;-76
2023/01/18 09:48:31;;;;;;;18.67;13.77;;;6.30;99.90;;;;;;5127094;27;20204;-78
2023/01/18 09:51:02;;;;;;;21.42;15.02;;;6.30;99.90;;;;;;5141546;27;20287;-77
2023/01/18 09:53:57;;;;;;;20.13;15.25;;;6.30;99.90;;;;;;5130409;27;20228;-76
2023/01/18 09:56:27;;;;;;;19.13;14.80;;;6.10;99.90;;;;;;5128593;27;20256;-75
2023/01/18 09:59:05;;;;;;;22.05;15.50;;;6.20;99.90;;;;;;5140887;27;20231;-77
2023/01/18 10:01:34;;;;;;;19.50;14.80;;;6.30;99.90;;;;;;5138101;27;20203;-74
2023/01/18 10:04:05;;;;;;;23.98;16.15;;;6.30;99.90;;;;;;5129076;27;20293;-78
2023/01/18 10:06:42;;;;;;;19.17;15.45;;;6.30;99.90;;;;;;5132685;27;20219;-76
2023/01/18 10:09:14;;;;;;;20.98;15.38;;;6.00;99.90;;;;;;5142558;27;20199;-75
2023/01/18 10:11:46;;;;;;;18.02;14.82;;;6.10;99.90;;;;;;5145687;27;20203;-75
2023/01/18 10:14:22;;;;;;;18.48;15.00;;;5.60;99.90;;;;;;5138141;27;20226;-76
2023/01/18 10:16:56;;;;;;;21.20;14.40;;;5.40;99.90;;;;;;5145356;27;20199;-75
2023/01/18 10:19:28;;;;;;;18.17;14.15;;;5.60;99.90;;;;;;5128012;27;20267;-75
2023/01/18 10:21:58;;;;;;;22.80;14.65;;;6.00;99.90;;;;;;5147900;27;20667;-76
2023/01/18 10:24:41;;;;;;;22.10;14.75;;;6.10;99.90;;;;;;5132270;27;20626;-77
2023/01/18 10:27:30;;;;;;;21.80;13.90;;;6.30;99.90;;;;;;5142007;27;20223;-79
2023/01/18 10:30:21;;;;;;;18.50;15.02;;;6.30;99.90;;;;;;5136624;27;20200;-77
2023/01/18 10:32:54;;;;;;;17.20;15.18;;;6.20;99.90;;;;;;5131805;27;20241;-76
2023/01/18 10:35:28;;;;;;;16.17;14.45;;;6.10;99.90;;;;;;5127087;27;20315;-78
2023/01/18 10:37:58;;;;;;;17.52;13.15;;;5.80;99.90;;;;;;5130191;27;20211;-75
2023/01/18 10:40:25;;;;;;;19.13;14.35;;;5.60;99.90;;;;;;5145087;27;20231;-76
2023/01/18 10:42:56;;;;;;;21.75;14.90;;;5.40;99.90;;;;;;5139757;27;20195;-76
2023/01/18 10:45:27;;;;;;;17.10;14.02;;;5.20;99.90;;;;;;5147047;27;20248;-76
2023/01/18 10:47:56;;;;;;;19.50;13.93;;;5.10;99.90;;;;;;5133621;27;20209;-75
2023/01/18 10:50:33;;;;;;;22.92;15.77;;;5.00;99.90;;;;;;5142693;27;20182;-75
2023/01/18 10:53:20;;;;;;;19.17;15.05;;;5.00;99.90;;;;;;5128899;27;20194;-75
2023/01/18 10:55:55;;;;;;;21.20;14.80;;;5.10;99.90;;;;;;5122928;27;20232;-77
2023/01/18 10:58:27;;;;;;;23.65;15.15;;;5.10;99.90;;;;;;5130772;27;20669;-76
2023/01/18 11:00:56;;;;;;;18.38;15.07;;;4.80;99.90;;;;;;5130863;27;20217;-76
2023/01/18 11:03:25;;;;;;;23.83;13.98;;;5.00;99.90;;;;;;5125510;27;20197;-77
2023/01/18 11:05:52;;;;;;;18.27;14.40;;;4.90;99.90;;;;;;5128600;27;20225;-76
2023/01/18 11:08:25;;;;;;;16.73;13.80;;;4.70;99.90;;;;;;5132324;27;20269;-76
2023/01/18 11:11:00;;;;;;;21.45;14.40;;;4.70;99.90;;;;;;5117965;27;20194;-76
2023/01/18 11:13:31;;;;;;;27.33;14.45;;;4.80;99.90;;;;;;5131957;27;20250;-75
2023/01/18 11:16:12;;;;;;;18.92;13.85;;;4.80;99.90;;;;;;5137558;27;20226;-73
2023/01/18 11:18:54;;;;;;;20.33;15.85;;;4.90;99.90;;;;;;5132073;27;20229;-73
2023/01/18 11:21:21;;;;;;;21.10;13.85;;;4.70;99.90;;;;;;5145596;27;20203;-74
2023/01/18 11:23:50;;;;;;;20.42;14.48;;;4.70;99.90;;;;;;5120720;27;20217;-74
2023/01/18 11:26:19;;;;;;;26.70;14.95;;;4.80;99.90;;;;;;5125052;27;20308;-74
2023/01/18 11:28:53;;;;;;;16.83;12.85;;;4.80;99.90;;;;;;5121676;27;20571;-75
2023/01/18 11:31:24;;;;;;;21.20;14.20;;;4.90;99.90;;;;;;5123417;27;20225;-75
2023/01/18 11:33:53;;;;;;;22.13;14.35;;;4.90;99.90;;;;;;5131457;27;20206;-73
2023/01/18 11:36:34;;;;;;;19.88;14.40;;;4.80;99.90;;;;;;5137693;27;20256;-74
2023/01/18 11:39:19;;;;;;;16.63;13.40;;;4.80;99.90;;;;;;5140234;27;20201;-75
2023/01/18 11:41:47;;;;;;;19.27;12.95;;;4.60;99.90;;;;;;5118481;27;20321;-76
2023/01/18 11:44:21;;;;;;;21.85;14.55;;;4.30;99.90;;;;;;5129800;27;20666;-74
2023/01/18 11:46:51;;;;;;;19.13;14.05;;;4.20;99.90;;;;;;5122593;27;20213;-74
2023/01/18 11:49:31;;;;;;;21.83;14.02;;;4.30;99.90;;;;;;5135384;27;20193;-76
2023/01/18 11:52:01;;;;;;;19.38;12.48;;;4.40;99.90;;;;;;5123453;27;20523;-76
2023/01/18 11:54:35;;;;;;;20.85;15.00;;;4.40;99.90;;;;;;5133106;27;20290;-75
2023/01/18 11:57:03;;;;;;;17.23;14.63;;;4.30;99.90;;;;;;5128656;27;20303;-75
2023/01/18 11:59:32;;;;;;;19.23;14.15;;;4.20;99.90;;;;;;5131490;27;20298;-75
2023/01/18 12:02:27;;;;;;;19.90;15.00;;;4.30;99.90;;;;;;5132508;27;20236;-76
2023/01/18 12:05:12;;;;;;;17.30;13.05;;;4.10;99.90;;;;;;5123622;27;20304;-75
2023/01/18 12:07:48;;;;;;;20.55;12.70;;;4.20;99.90;;;;;;5119748;27;20280;-75
2023/01/18 12:10:20;;;;;;;17.17;12.50;;;4.20;99.90;;;;;;5128326;27;20196;-77
2023/01/18 12:13:10;;;;;;;19.98;13.25;;;4.10;99.90;;;;;;5131536;27;20684;-75
2023/01/18 12:15:54;;;;;;;17.33;13.55;;;4.20;99.90;;;;;;5122871;27;20217;-76
2023/01/18 12:18:44;;;;;;;21.48;13.27;;;4.30;99.90;;;;;;5136666;27;20669;-75
2023/01/18 12:21:13;;;;;;;21.90;13.10;;;4.30;99.90;;;;;;5132357;27;20202;-76
2023/01/18 12:24:19;;;;;;;18.83;12.50;;;4.40;99.90;;;;;;5131650;27;20283;-75
2023/01/18 12:26:52;;;;;;;17.45;12.18;;;4.50;99.90;;;;;;5124590;27;20561;-73
2023/01/18 12:29:48;;;;;;;19.23;12.23;;;4.40;99.90;;;;;;5130271;27;20682;-75
2023/01/18 12:32:41;;;;;;;16.20;11.90;;;4.30;99.90;;;;;;5132997;27;20206;-76
2023/01/18 12:35:34;;;;;;;19.13;12.32;;;4.30;99.90;;;;;;5093730;27;20243;-77
2023/01/18 12:38:14;;;;;;;15.95;11.73;;;4.30;99.90;;;;;;5127381;27;20236;-75
2023/01/18 12:41:02;;;;;;;23.65;12.88;;;4.30;99.90;;;;;;5142488;27;20233;-76
2023/01/18 12:43:40;;;;;;;20.73;13.13;;;4.20;99.90;;;;;;5125035;27;20605;-75
2023/01/18 12:46:10;;;;;;;14.63;10.30;;;4.20;99.90;;;;;;5135650;27;20213;-75
2023/01/18 12:48:46;;;;;;;16.05;11.32;;;4.20;99.90;;;;;;5127587;27;20283;-76
2023/01/18 12:51:17;;;;;;;16.77;10.82;;;4.30;99.90;;;;;;5139849;27;20203;-75
2023/01/18 12:53:47;;;;;;;16.42;11.48;;;4.20;99.90;;;;;;5135822;27;20541;-75
2023/01/18 12:56:18;;;;;;;15.60;10.52;;;4.30;99.90;;;;;;5145073;27;20288;-75
2023/01/18 12:58:56;;;;;;;16.15;11.35;;;4.20;99.90;;;;;;5131988;27;20193;-76
2023/01/18 13:01:26;;;;;;;19.13;11.50;;;4.30;99.90;;;;;;5147718;27;20228;-74
2023/01/18 13:03:58;;;;;;;13.95;10.82;;;4.30;99.90;;;;;;5144133;27;20239;-75
2023/01/18 13:06:27;;;;;;;15.63;11.25;;;4.40;99.90;;;;;;5149882;27;20303;-76
2023/01/18 13:08:59;;;;;;;19.27;11.80;;;4.50;99.90;;;;;;5127946;27;20198;-78
2023/01/18 13:11:29;;;;;;;20.00;11.18;;;4.50;99.90;;;;;;5140627;27;20202;-75
2023/01/18 13:14:08;;;;;;;16.52;11.27;;;4.50;99.90;;;;;;5143611;27;20288;-75
2023/01/18 13:16:44;;;;;;;15.38;11.20;;;4.50;99.90;;;;;;5133585;27;20260;-74
2023/01/18 13:19:13;;;;;;;14.30;9.88;;;4.50;99.90;;;;;;5138350;27;20550;-74
2023/01/18 13:21:52;;;;;;;19.60;11.98;;;4.50;99.90;;;;;;5141959;27;20188;-75
2023/01/18 13:24:29;;;;;;;20.30;11.13;;;4.50;99.90;;;;;;5131848;27;20291;-75
2023/01/18 13:27:08;;;;;;;16.38;11.63;;;4.50;99.90;;;;;;5132311;27;20232;-74
2023/01/18 13:29:35;;;;;;;19.25;12.15;;;4.60;99.90;;;;;;5136757;27;20258;-74
2023/01/18 13:32:02;;;;;;;17.40;11.90;;;4.60;99.90;;;;;;5135104;27;20216;-76
2023/01/18 13:34:33;;;;;;;17.25;11.13;;;4.60;99.90;;;;;;5135718;27;20329;-75
2023/01/18 13:37:03;;;;;;;18.08;11.68;;;4.60;99.90;;;;;;5116691;27;20258;-75
2023/01/18 13:39:32;;;;;;;19.67;10.40;;;4.60;99.90;;;;;;5134969;27;20275;-74
2023/01/18 13:42:26;;;;;;;11.77;9.07;;;4.70;99.90;;;;;;5152991;27;20196;-75
2023/01/18 13:45:15;;;;;;;13.30;10.32;;;4.60;99.90;;;;;;5130874;27;20254;-75
2023/01/18 13:47:48;;;;;;;15.85;11.27;;;4.80;99.90;;;;;;5145989;27;20204;-75